CheckWX is a tool to help pilots better visualize weather data.  It is not intended as a substitute for an official pre-flight weather briefing.

02:12:20 UTC

DRZA METAR
Mano Dayak International Airport
Agadez, Niger
Current

8 hours ago

DRZA 191800Z 28010KT CAVOK 36/18 Q1010
Observed
Jul-19 @ 18:00 UTC
Wind
  • 280° at 10 KTS
Visibility
10,000+ meters
Flight Rules
VFR
Cloud Levels
  • Clear skies
Temperature
36°C / 97°F
Dewpoint
18°C / 64°F
Humidity
34%
Altimeter
29.82" Hg
Pressure
1009.92 hPa
Previous

9 hours ago

DRZA 191700Z 28010KT CAVOK 37/18 Q1010
Observed
Jul-19 @ 17:00 UTC
Wind
  • 280° at 10 KTS
Visibility
10,000+ meters
Flight Rules
VFR
Cloud Levels
  • Clear skies
Temperature
37°C / 99°F
Dewpoint
18°C / 64°F
Humidity
33%
Altimeter
29.82" Hg
Pressure
1009.92 hPa
Previous

10 hours ago

DRZA 191600Z 28010KT CAVOK 38/19 Q1010
Observed
Jul-19 @ 16:00 UTC
Wind
  • 280° at 10 KTS
Visibility
10,000+ meters
Flight Rules
VFR
Cloud Levels
  • Clear skies
Temperature
38°C / 100°F
Dewpoint
19°C / 66°F
Humidity
33%
Altimeter
29.82" Hg
Pressure
1009.92 hPa